ローマ/フィウミチーノ の空港の天気 - METARとTAF

ローマ・レオナルド・ダ・ビンチ国際空港 ( LIRF / FCO ) - イタリア ローマ
飛行場実況気象(Metar)
観測時間06/26 00:20 CEST (06/25 22:20 UTC)
風向・風速南東 2m/s
視程10km以上
天気現象
なし
気温24℃
湿度83%
気圧1020hPa
METARLIRF 252220Z 14004KT 110V170 CAVOK 24/21 Q1020 NOSIG
過去の天気等 Google飛行場航空写真 Wunderground天気予報

過去48時間のMETAR

飛行場予報(TAF)
発表時間: 6/25 19:00 CEST (6/25 17:00 UTC)
予報対象時間: 25日20時 CEST ~ 27日2時 CEST
風向・風速西北西 5m/s
視程10km以上
なし
25日20時 CEST ~ 25日22時 CEST に徐々に
風向・風速不定 3m/s
26日11時 CEST ~ 26日13時 CEST に徐々に
風向・風速西 6m/s
26日20時 CEST ~ 26日22時 CEST に徐々に
風向・風速不定 3m/s
TAF LIRF 251700Z 2518/2624 29010KT CAVOK
BECMG 2518/2520 VRB05KT
BECMG 2609/2611 28012KT
BECMG 2618/2620 VRB05KT